createdAt,value
2023-02-11T00:01:36.279Z,73.23
2023-02-11T00:04:06.074Z,72.96
2023-02-11T00:06:35.826Z,73.15
2023-02-11T00:09:06.553Z,73.53
2023-02-11T00:11:34.823Z,74.07
2023-02-11T00:14:07.846Z,72.31
2023-02-11T00:16:35.993Z,72.67
2023-02-11T00:19:05.647Z,71.39
2023-02-11T00:21:34.056Z,71.08
2023-02-11T00:24:02.360Z,70.83
2023-02-11T00:26:34.000Z,73.15
2023-02-11T00:29:02.432Z,72.50
2023-02-11T00:31:31.015Z,71.88
2023-02-11T00:33:59.229Z,71.44
2023-02-11T00:36:29.056Z,71.51
2023-02-11T00:38:58.454Z,71.69
2023-02-11T00:41:27.218Z,71.27
2023-02-11T00:43:56.547Z,71.63
2023-02-11T00:46:24.886Z,71.49
2023-02-11T00:48:55.085Z,72.53
2023-02-11T00:51:23.181Z,72.47
2023-02-11T00:53:51.232Z,71.72
2023-02-11T00:56:19.181Z,71.81
2023-02-11T00:58:47.224Z,71.91
2023-02-11T01:01:16.612Z,72.26
2023-02-11T01:03:44.562Z,72.09
2023-02-11T01:06:12.871Z,71.86
2023-02-11T01:08:41.417Z,72.24
2023-02-11T01:11:13.855Z,72.52
2023-02-11T01:13:41.934Z,72.56
2023-02-11T01:16:10.836Z,72.07
2023-02-11T01:18:41.916Z,72.59
2023-02-11T01:21:09.910Z,72.55
2023-02-11T01:23:37.947Z,73.28
2023-02-11T01:26:06.119Z,73.15
2023-02-11T01:28:34.637Z,72.77
2023-02-11T01:31:03.383Z,72.79
2023-02-11T01:33:31.681Z,73.73
2023-02-11T01:36:03.850Z,73.49
2023-02-11T01:38:32.479Z,73.28
2023-02-11T01:41:02.312Z,73.83
2023-02-11T01:43:33.832Z,74.68
2023-02-11T01:46:15.649Z,73.06
2023-02-11T01:48:47.538Z,72.58
2023-02-11T01:51:22.622Z,72.16
2023-02-11T01:54:09.985Z,72.69
2023-02-11T01:57:01.346Z,72.84
2023-02-11T01:59:34.518Z,72.37
2023-02-11T02:02:08.038Z,71.77
2023-02-11T02:04:43.066Z,72.59
2023-02-11T02:07:15.738Z,72.50
2023-02-11T02:09:47.833Z,73.08
2023-02-11T02:12:16.077Z,73.22
2023-02-11T02:14:44.185Z,72.74
2023-02-11T02:17:25.945Z,73.48
2023-02-11T02:20:19.747Z,72.74
2023-02-11T02:23:14.133Z,72.96
2023-02-11T02:26:15.234Z,72.56
2023-02-11T02:29:23.514Z,73.13
2023-02-11T02:32:15.080Z,72.88
2023-02-11T02:34:51.270Z,73.68
2023-02-11T02:37:25.577Z,73.13
2023-02-11T02:39:53.557Z,73.04
2023-02-11T02:42:22.423Z,73.17
2023-02-11T02:44:51.041Z,73.92
2023-02-11T02:47:20.631Z,73.90
2023-02-11T02:49:48.761Z,73.69
2023-02-11T02:52:33.174Z,73.08
2023-02-11T02:55:30.778Z,73.53
2023-02-11T02:58:21.155Z,73.79
2023-02-11T03:01:01.561Z,73.78
2023-02-11T03:03:43.306Z,74.15
2023-02-11T03:06:18.817Z,74.12
2023-02-11T03:08:52.382Z,74.84
2023-02-11T03:11:22.984Z,74.81
2023-02-11T03:13:52.427Z,74.57
2023-02-11T03:16:25.937Z,74.95
2023-02-11T03:19:03.324Z,74.81
2023-02-11T03:21:35.007Z,74.40
2023-02-11T03:24:08.298Z,75.04
2023-02-11T03:26:41.678Z,75.65
2023-02-11T03:29:15.894Z,75.48
2023-02-11T03:31:57.796Z,75.72
2023-02-11T03:34:32.078Z,75.20
2023-02-11T03:37:05.708Z,74.72
2023-02-11T03:39:39.210Z,75.40
2023-02-11T03:42:10.699Z,75.93
2023-02-11T03:44:44.404Z,76.24
2023-02-11T03:47:14.594Z,75.54
2023-02-11T03:49:46.701Z,75.73
2023-02-11T03:52:17.780Z,75.50
2023-02-11T03:54:50.093Z,75.54
2023-02-11T03:57:18.236Z,76.04
2023-02-11T03:59:52.425Z,75.67
2023-02-11T04:02:20.864Z,76.23
2023-02-11T04:04:50.224Z,75.66
2023-02-11T04:07:18.179Z,75.33
2023-02-11T04:09:46.151Z,75.90
2023-02-11T04:12:14.312Z,75.92
2023-02-11T04:14:42.304Z,75.68
2023-02-11T04:17:10.261Z,76.21
2023-02-11T04:19:38.368Z,76.02
2023-02-11T04:22:08.467Z,75.00
2023-02-11T04:24:36.592Z,75.25
2023-02-11T04:27:04.946Z,74.48
2023-02-11T04:29:33.429Z,76.64
2023-02-11T04:32:01.493Z,76.82
2023-02-11T04:34:29.545Z,77.32
2023-02-11T04:36:57.598Z,76.87
2023-02-11T04:39:27.035Z,76.64
2023-02-11T04:41:55.062Z,76.60
2023-02-11T04:44:23.283Z,77.89
2023-02-11T04:46:51.252Z,78.55
2023-02-11T04:49:19.224Z,78.26
2023-02-11T04:51:49.374Z,78.80
2023-02-11T04:54:18.134Z,78.82
2023-02-11T04:56:47.636Z,77.87
2023-02-11T04:59:15.693Z,77.17
2023-02-11T05:01:44.102Z,77.37
2023-02-11T05:04:12.171Z,77.65
2023-02-11T05:06:40.651Z,78.16
2023-02-11T05:09:09.117Z,77.69
2023-02-11T05:11:39.462Z,78.09
2023-02-11T05:14:09.071Z,77.96
2023-02-11T05:16:37.200Z,77.74
2023-02-11T05:19:05.484Z,78.53
2023-02-11T05:21:33.450Z,79.34
2023-02-11T05:24:01.599Z,78.76
2023-02-11T05:26:29.804Z,79.14
2023-02-11T05:28:57.894Z,79.19
2023-02-11T05:31:27.271Z,79.68
2023-02-11T05:33:55.729Z,79.54
2023-02-11T05:36:23.808Z,79.61
2023-02-11T05:38:51.912Z,79.95
2023-02-11T05:41:21.977Z,79.28
2023-02-11T05:43:51.133Z,80.31
2023-02-11T05:46:22.060Z,79.66
2023-02-11T05:48:51.606Z,79.66
2023-02-11T05:51:19.562Z,79.15
2023-02-11T05:53:47.632Z,79.30
2023-02-11T05:56:15.643Z,79.37
2023-02-11T05:58:43.609Z,79.31
2023-02-11T06:01:11.699Z,77.65
2023-02-11T06:03:39.752Z,76.87
2023-02-11T06:06:13.094Z,75.97
2023-02-11T06:08:41.788Z,75.40
2023-02-11T06:11:10.360Z,74.77
2023-02-11T06:13:38.253Z,74.15
2023-02-11T06:16:06.707Z,74.90
2023-02-11T06:18:34.793Z,73.29
2023-02-11T06:21:03.008Z,72.28
2023-02-11T06:23:32.255Z,71.86
2023-02-11T06:26:03.194Z,71.51
2023-02-11T06:28:32.575Z,70.67
2023-02-11T06:31:06.616Z,69.53
2023-02-11T06:33:35.386Z,67.74
2023-02-11T06:36:04.349Z,67.08
2023-02-11T06:38:33.744Z,67.46
2023-02-11T06:41:01.694Z,67.38
2023-02-11T06:43:29.625Z,67.68
2023-02-11T06:45:57.566Z,67.73
2023-02-11T06:48:25.555Z,68.27
2023-02-11T06:50:53.528Z,68.20
2023-02-11T06:53:21.424Z,68.37
2023-02-11T06:55:51.035Z,68.50
2023-02-11T06:58:19.214Z,67.96
2023-02-11T07:00:47.239Z,67.18
2023-02-11T07:03:15.373Z,67.63
2023-02-11T07:05:44.268Z,66.63
2023-02-11T07:08:12.245Z,65.67
2023-02-11T07:10:40.193Z,65.25
2023-02-11T07:13:09.726Z,65.26
2023-02-11T07:15:38.559Z,64.68
2023-02-11T07:18:06.482Z,63.65
2023-02-11T07:20:34.525Z,62.74
2023-02-11T07:23:02.455Z,61.84
2023-02-11T07:25:30.375Z,62.18
2023-02-11T07:27:58.445Z,61.56
2023-02-11T07:30:27.808Z,62.24
2023-02-11T07:32:57.208Z,61.45
2023-02-11T07:35:25.106Z,60.25
2023-02-11T07:37:53.044Z,59.77
2023-02-11T07:40:21.118Z,60.46
2023-02-11T07:42:49.199Z,59.82
2023-02-11T07:45:17.585Z,58.96
2023-02-11T07:47:46.865Z,59.80
2023-02-11T07:50:14.954Z,57.80
2023-02-11T07:52:43.008Z,56.58
2023-02-11T07:55:11.664Z,56.22
2023-02-11T07:57:39.654Z,56.09
2023-02-11T08:00:08.467Z,56.80
2023-02-11T08:02:36.770Z,57.49
2023-02-11T08:05:06.570Z,56.24
2023-02-11T08:07:34.517Z,55.62
2023-02-11T08:10:02.602Z,53.32
2023-02-11T08:12:31.325Z,54.25
2023-02-11T08:14:59.286Z,54.66
2023-02-11T08:17:27.339Z,53.98
2023-02-11T08:19:55.355Z,53.71
2023-02-11T08:22:24.720Z,52.48
2023-02-11T08:24:52.745Z,51.26
2023-02-11T08:27:20.857Z,52.26
2023-02-11T08:29:48.992Z,51.71
2023-02-11T08:32:16.962Z,51.11
2023-02-11T08:34:45.365Z,49.61
2023-02-11T08:37:13.556Z,47.45
2023-02-11T08:39:42.989Z,48.62
2023-02-11T08:42:11.000Z,47.97
2023-02-11T08:44:39.051Z,49.28
2023-02-11T08:47:07.017Z,49.65
2023-02-11T08:49:35.274Z,49.88
2023-02-11T08:52:04.255Z,48.82
2023-02-11T08:54:32.739Z,49.59
2023-02-11T08:57:02.865Z,49.49
2023-02-11T08:59:31.069Z,50.08
2023-02-11T09:01:59.571Z,49.34
2023-02-11T09:04:27.706Z,49.16
2023-02-11T09:06:55.934Z,48.48
2023-02-11T09:09:24.342Z,48.68
2023-02-11T09:11:57.151Z,48.80
2023-02-11T09:14:26.470Z,48.19
2023-02-11T09:16:55.017Z,46.37
2023-02-11T09:19:23.812Z,43.50
2023-02-11T09:21:53.015Z,43.90
2023-02-11T09:24:20.960Z,44.93
2023-02-11T09:26:49.657Z,43.90
2023-02-11T09:29:17.607Z,44.98
2023-02-11T09:31:47.087Z,45.57
2023-02-11T09:34:15.962Z,44.55
2023-02-11T09:36:44.130Z,42.89
2023-02-11T09:39:19.723Z,42.91
2023-02-11T09:42:26.291Z,42.44
2023-02-11T09:44:54.320Z,41.09
2023-02-11T09:47:31.510Z,40.66
2023-02-11T09:50:07.518Z,38.83
2023-02-11T09:52:42.851Z,40.22
2023-02-11T09:55:19.526Z,39.75
2023-02-11T09:57:47.666Z,41.20
2023-02-11T10:00:26.189Z,41.24
2023-02-11T10:03:27.968Z,42.48
2023-02-11T10:06:20.052Z,42.80
2023-02-11T10:09:01.041Z,41.70
2023-02-11T10:11:38.627Z,42.37
2023-02-11T10:14:22.752Z,42.29
2023-02-11T10:17:02.667Z,41.97
2023-02-11T10:20:01.361Z,40.90
2023-02-11T10:22:33.924Z,41.86
2023-02-11T10:25:07.410Z,42.21
2023-02-11T10:27:37.396Z,42.74
2023-02-11T10:30:12.328Z,42.56
2023-02-11T10:32:46.916Z,42.56
2023-02-11T10:35:18.720Z,41.99
2023-02-11T10:37:47.069Z,42.69
2023-02-11T10:40:16.713Z,41.98
2023-02-11T10:42:48.877Z,42.40
2023-02-11T10:45:23.478Z,42.16
2023-02-11T10:47:51.484Z,42.10
2023-02-11T10:50:25.256Z,41.23
2023-02-11T10:52:53.224Z,40.44
2023-02-11T10:55:24.149Z,39.11
2023-02-11T10:57:56.668Z,40.41
2023-02-11T11:00:38.008Z,41.14
2023-02-11T11:03:08.539Z,40.33
2023-02-11T11:05:48.322Z,40.27
2023-02-11T11:08:18.075Z,40.04
2023-02-11T11:10:48.473Z,40.52
2023-02-11T11:13:28.754Z,38.91
2023-02-11T11:16:18.944Z,39.50
2023-02-11T11:18:48.871Z,39.52
2023-02-11T11:21:22.524Z,38.98
2023-02-11T11:23:55.037Z,38.63
2023-02-11T11:26:23.895Z,37.39
2023-02-11T11:29:01.344Z,38.17
2023-02-11T11:31:34.555Z,36.17
2023-02-11T11:34:14.067Z,36.84
2023-02-11T11:36:43.833Z,36.17
2023-02-11T11:39:26.105Z,35.21
2023-02-11T11:41:57.459Z,35.88
2023-02-11T11:44:29.329Z,35.66
2023-02-11T11:47:24.357Z,35.73
2023-02-11T11:50:06.296Z,36.28
2023-02-11T11:52:43.366Z,35.86
2023-02-11T11:55:18.557Z,36.60
2023-02-11T11:57:46.888Z,35.88
2023-02-11T12:00:21.081Z,34.53
2023-02-11T12:03:26.382Z,33.93
2023-02-11T12:06:08.999Z,32.76
2023-02-11T12:08:50.187Z,33.70
2023-02-11T12:11:24.713Z,33.36
2023-02-11T12:14:08.029Z,32.30
2023-02-11T12:16:45.798Z,31.85
2023-02-11T12:19:44.689Z,30.80
2023-02-11T12:22:13.980Z,31.59
2023-02-11T12:25:01.388Z,31.92
2023-02-11T12:27:45.289Z,31.54
2023-02-11T12:30:42.817Z,31.06
2023-02-11T12:33:22.800Z,30.92
2023-02-11T12:35:59.632Z,32.22
2023-02-11T12:38:39.402Z,31.64
2023-02-11T12:41:44.516Z,31.97
2023-02-11T12:44:24.542Z,31.29
2023-02-11T12:47:02.940Z,30.63
2023-02-11T12:49:47.719Z,31.26
2023-02-11T12:52:33.596Z,30.61
2023-02-11T12:55:06.019Z,30.06
2023-02-11T12:57:39.156Z,29.52
2023-02-11T13:00:14.856Z,29.01
2023-02-11T13:02:48.226Z,29.59
2023-02-11T13:05:28.207Z,29.88
2023-02-11T13:08:04.253Z,30.03
2023-02-11T13:10:36.047Z,29.83
2023-02-11T13:13:18.036Z,30.06
2023-02-11T13:15:50.032Z,30.39
2023-02-11T13:18:45.947Z,30.27
2023-02-11T13:21:40.353Z,29.95
2023-02-11T13:24:23.440Z,29.91
2023-02-11T13:27:00.502Z,29.09
2023-02-11T13:29:41.345Z,28.59
2023-02-11T13:32:12.221Z,28.43
2023-02-11T13:34:58.922Z,28.18
2023-02-11T13:37:30.029Z,28.17
2023-02-11T13:40:02.908Z,27.36
2023-02-11T13:42:32.529Z,27.17
2023-02-11T13:45:02.559Z,27.53
2023-02-11T13:47:33.112Z,27.07
2023-02-11T13:50:02.661Z,26.86
2023-02-11T13:52:33.297Z,26.57
2023-02-11T13:55:15.352Z,26.90
2023-02-11T13:57:43.784Z,26.76
2023-02-11T14:00:50.636Z,26.53
2023-02-11T14:03:52.333Z,26.67
2023-02-11T14:06:44.362Z,26.43
2023-02-11T14:09:42.312Z,26.81
2023-02-11T14:12:33.240Z,26.96
2023-02-11T14:15:23.372Z,27.04
2023-02-11T14:17:52.510Z,26.72
2023-02-11T14:20:44.670Z,29.54
2023-02-11T14:23:25.709Z,30.37
2023-02-11T14:26:16.413Z,30.54
2023-02-11T14:28:46.819Z,30.58
2023-02-11T14:31:19.595Z,29.78
2023-02-11T14:34:09.037Z,30.25
2023-02-11T14:36:56.695Z,30.32
2023-02-11T14:39:40.391Z,29.95
2023-02-11T14:42:18.986Z,31.09
2023-02-11T14:44:50.193Z,32.70
2023-02-11T14:47:21.890Z,31.18
2023-02-11T14:49:50.809Z,31.96
2023-02-11T14:52:28.804Z,32.67
2023-02-11T14:55:08.449Z,31.79
2023-02-11T14:57:37.928Z,31.81
2023-02-11T15:00:21.299Z,31.57
2023-02-11T15:02:49.827Z,31.58
2023-02-11T15:05:21.570Z,31.78
2023-02-11T15:07:53.715Z,32.57
2023-02-11T15:10:28.241Z,32.02
2023-02-11T15:12:57.108Z,31.87
2023-02-11T15:15:25.257Z,32.36
2023-02-11T15:17:53.473Z,31.89
2023-02-11T15:20:25.912Z,32.72
2023-02-11T15:22:59.533Z,33.16
2023-02-11T15:25:28.173Z,32.82
2023-02-11T15:27:57.868Z,32.41
2023-02-11T15:30:30.064Z,32.65
2023-02-11T15:33:00.326Z,33.63
2023-02-11T15:35:31.322Z,32.62
2023-02-11T15:38:01.168Z,33.33
2023-02-11T15:40:32.412Z,33.92
2023-02-11T15:43:02.789Z,33.93
2023-02-11T15:45:33.566Z,33.65
2023-02-11T15:48:09.283Z,34.17
2023-02-11T15:50:40.547Z,34.00
2023-02-11T15:53:24.647Z,34.67
2023-02-11T15:55:55.254Z,35.32
2023-02-11T15:58:24.795Z,35.08
2023-02-11T16:00:59.798Z,34.78
2023-02-11T16:03:32.961Z,35.40
2023-02-11T16:06:20.015Z,34.66
2023-02-11T16:09:04.175Z,35.23
2023-02-11T16:11:34.142Z,35.00
2023-02-11T16:14:18.505Z,35.23
2023-02-11T16:16:50.359Z,35.45
2023-02-11T16:19:21.181Z,35.93
2023-02-11T16:21:50.895Z,35.98
2023-02-11T16:24:22.620Z,36.00
2023-02-11T16:26:53.350Z,36.11
2023-02-11T16:29:26.076Z,36.08
2023-02-11T16:31:55.691Z,36.32
2023-02-11T16:34:25.741Z,36.60
2023-02-11T16:36:54.099Z,36.61
2023-02-11T16:39:24.268Z,37.26
2023-02-11T16:41:53.315Z,37.27
2023-02-11T16:44:21.505Z,37.19
2023-02-11T16:46:49.798Z,36.96
2023-02-11T16:49:22.418Z,37.75
2023-02-11T16:51:52.707Z,37.94
2023-02-11T16:54:21.161Z,37.99
2023-02-11T16:56:50.848Z,38.35
2023-02-11T16:59:18.857Z,38.26
2023-02-11T17:01:47.972Z,38.88
2023-02-11T17:04:20.887Z,39.15
2023-02-11T17:06:49.459Z,39.33
2023-02-11T17:09:20.925Z,39.34
2023-02-11T17:11:50.579Z,39.43
2023-02-11T17:14:19.237Z,39.41
2023-02-11T17:16:48.706Z,38.92
2023-02-11T17:19:22.654Z,39.41
2023-02-11T17:21:53.389Z,39.15
2023-02-11T17:24:22.464Z,38.76
2023-02-11T17:26:52.094Z,38.38
2023-02-11T17:29:21.979Z,38.65
2023-02-11T17:31:51.586Z,39.52
2023-02-11T17:34:20.422Z,39.63
2023-02-11T17:36:48.654Z,39.02
2023-02-11T17:39:16.816Z,38.57
2023-02-11T17:41:44.961Z,38.90
2023-02-11T17:44:15.559Z,39.40
2023-02-11T17:46:43.771Z,39.62
2023-02-11T17:49:12.184Z,39.87
2023-02-11T17:51:40.975Z,39.54
2023-02-11T17:54:11.631Z,39.05
2023-02-11T17:56:40.269Z,40.24
2023-02-11T17:59:09.802Z,41.44
2023-02-11T18:01:41.214Z,40.69
2023-02-11T18:04:11.918Z,41.08
2023-02-11T18:06:39.935Z,41.61
2023-02-11T18:09:08.023Z,42.10
2023-02-11T18:11:38.118Z,42.10
2023-02-11T18:14:07.927Z,41.97
2023-02-11T18:16:39.503Z,42.13
2023-02-11T18:19:09.358Z,42.03
2023-02-11T18:21:37.699Z,43.08
2023-02-11T18:24:07.116Z,43.08
2023-02-11T18:26:36.330Z,43.36
2023-02-11T18:29:06.156Z,43.41
2023-02-11T18:31:35.633Z,44.13
2023-02-11T18:34:07.568Z,44.03
2023-02-11T18:36:36.705Z,44.44
2023-02-11T18:39:05.995Z,44.97
2023-02-11T18:41:34.120Z,45.98
2023-02-11T18:44:03.296Z,45.46
2023-02-11T18:46:31.963Z,45.30
2023-02-11T18:48:59.954Z,45.81
2023-02-11T18:51:31.887Z,46.13
2023-02-11T18:54:01.206Z,45.99
2023-02-11T18:56:29.329Z,46.89
2023-02-11T18:59:01.356Z,47.09
2023-02-11T19:01:31.274Z,47.79
2023-02-11T19:04:02.866Z,47.38
2023-02-11T19:06:34.535Z,47.44
2023-02-11T19:09:05.483Z,47.27
2023-02-11T19:11:50.427Z,48.41
2023-02-11T19:14:21.362Z,47.44
2023-02-11T19:16:51.388Z,48.14
2023-02-11T19:19:19.909Z,48.41
2023-02-11T19:21:49.953Z,47.87
2023-02-11T19:24:20.074Z,48.30
2023-02-11T19:26:48.772Z,48.63
2023-02-11T19:29:17.162Z,48.73
2023-02-11T19:31:45.565Z,48.03
2023-02-11T19:34:15.208Z,49.24
2023-02-11T19:36:43.341Z,48.07
2023-02-11T19:39:13.325Z,49.00
2023-02-11T19:41:41.445Z,48.12
2023-02-11T19:44:10.218Z,48.38
2023-02-11T19:46:40.890Z,49.16
2023-02-11T19:49:10.003Z,49.27
2023-02-11T19:51:39.420Z,48.99
2023-02-11T19:54:07.953Z,48.39
2023-02-11T19:56:37.964Z,48.50
2023-02-11T19:59:08.919Z,49.20
2023-02-11T20:01:37.704Z,48.81
2023-02-11T20:04:06.511Z,50.48
2023-02-11T20:06:35.368Z,50.45
2023-02-11T20:09:07.355Z,50.12
2023-02-11T20:11:37.949Z,50.52
2023-02-11T20:14:08.442Z,50.70
2023-02-11T20:16:47.446Z,51.56
2023-02-11T20:19:18.518Z,52.57
2023-02-11T20:21:48.411Z,53.00
2023-02-11T20:24:17.531Z,52.91
2023-02-11T20:26:48.530Z,54.15
2023-02-11T20:29:17.642Z,54.59
2023-02-11T20:31:46.213Z,53.66
2023-02-11T20:34:14.548Z,53.71
2023-02-11T20:36:42.779Z,53.78
2023-02-11T20:39:17.200Z,53.56
2023-02-11T20:41:47.020Z,53.31
2023-02-11T20:44:15.059Z,53.60
2023-02-11T20:46:45.936Z,53.21
2023-02-11T20:49:16.184Z,53.20
2023-02-11T20:51:45.114Z,52.91
2023-02-11T20:54:14.388Z,52.75
2023-02-11T20:56:42.687Z,52.55
2023-02-11T20:59:13.941Z,52.59
2023-02-11T21:01:44.681Z,52.87
2023-02-11T21:04:15.349Z,52.88
2023-02-11T21:06:45.170Z,53.27
2023-02-11T21:09:15.547Z,53.02
2023-02-11T21:11:44.341Z,52.11
2023-02-11T21:14:14.207Z,51.50
2023-02-11T21:16:42.762Z,51.67
2023-02-11T21:19:10.767Z,51.47
2023-02-11T21:21:39.834Z,51.24
2023-02-11T21:24:08.853Z,51.28
2023-02-11T21:26:38.104Z,52.19
2023-02-11T21:29:07.216Z,53.08
2023-02-11T21:31:37.747Z,52.92
2023-02-11T21:34:06.594Z,52.33
2023-02-11T21:36:34.919Z,52.03
2023-02-11T21:39:04.138Z,52.05
2023-02-11T21:41:32.203Z,51.70
2023-02-11T21:44:00.146Z,51.16
2023-02-11T21:46:28.858Z,51.12
2023-02-11T21:48:58.386Z,51.26
2023-02-11T21:51:27.809Z,50.93
2023-02-11T21:53:56.471Z,50.76
2023-02-11T21:56:26.400Z,50.63
2023-02-11T21:58:56.068Z,50.81
2023-02-11T22:01:27.040Z,51.90
2023-02-11T22:03:55.188Z,53.16
2023-02-11T22:06:27.283Z,53.39
2023-02-11T22:08:56.222Z,53.91
2023-02-11T22:11:24.836Z,54.31
2023-02-11T22:13:56.318Z,54.18
2023-02-11T22:16:25.131Z,54.65
2023-02-11T22:18:53.190Z,54.63
2023-02-11T22:21:23.193Z,55.12
2023-02-11T22:23:52.605Z,55.75
2023-02-11T22:26:22.686Z,55.19
2023-02-11T22:28:51.655Z,55.38
2023-02-11T22:31:21.953Z,55.39
2023-02-11T22:33:50.201Z,55.70
2023-02-11T22:36:21.000Z,55.75
2023-02-11T22:38:49.324Z,55.58
2023-02-11T22:41:19.151Z,54.93
2023-02-11T22:43:47.486Z,55.61
2023-02-11T22:46:18.567Z,55.35
2023-02-11T22:48:46.720Z,55.69
2023-02-11T22:51:16.928Z,55.78
2023-02-11T22:53:45.025Z,55.61
2023-02-11T22:56:15.757Z,55.48
2023-02-11T22:58:45.718Z,54.63
2023-02-11T23:01:15.191Z,53.92
2023-02-11T23:03:43.176Z,53.02
2023-02-11T23:06:12.613Z,52.97
2023-02-11T23:08:42.951Z,52.75
2023-02-11T23:11:12.831Z,52.26
2023-02-11T23:13:42.581Z,53.17
2023-02-11T23:16:13.866Z,53.04
2023-02-11T23:18:44.115Z,52.77
2023-02-11T23:21:15.977Z,52.91
2023-02-11T23:23:44.233Z,53.41
2023-02-11T23:26:14.036Z,52.77
2023-02-11T23:28:45.921Z,52.77
2023-02-11T23:31:18.840Z,53.09
2023-02-11T23:33:47.902Z,53.12
2023-02-11T23:36:16.888Z,52.50
2023-02-11T23:38:45.033Z,51.58
2023-02-11T23:41:14.096Z,51.93
2023-02-11T23:43:42.124Z,51.34
2023-02-11T23:46:10.516Z,51.33
2023-02-11T23:48:40.596Z,51.23
2023-02-11T23:51:09.672Z,51.48
2023-02-11T23:53:37.732Z,50.89
2023-02-11T23:56:08.800Z,50.55
2023-02-11T23:58:37.207Z,50.68
